Main page
METAR-TAF:

METAR-TAF

Airports :

Pajala Airport

Pajala, Sweden

latitude: 67-14-44N, longitude: 023-04-08E, elevation: 165 m

Current weather observation

The report was made 23 minutes ago, at 22:50 UTC
Wind 7 kt from the West
Temperature -8°C
Humidity 79%
Pressure 991 hPa
Visibility 10 km or more

METAR: ESUP 212250Z AUTO 26007KT 9999 NCD M08/M11 Q0991

Time: 00:13 (23:13 UTC)


TAF: missing

Weather observations and forecasts of more than 4000 airports (METAR and TAF reports).

The available stations are represented by yellow and red dots on the map.

Hover mouse over dot to see the name of the station.

Then click to see weather observations and forecasts.

To change the map : click on the green buttons with a black cross to zoom in, on the green button with a dash to zoom out, or on the green arrows for adjacent maps.


METAR-TAF: